createdAt,value
2023-02-09T00:01:23.004Z,0.28
2023-02-09T00:03:50.400Z,0.30
2023-02-09T00:06:19.138Z,0.35
2023-02-09T00:08:46.145Z,0.34
2023-02-09T00:11:15.218Z,0.36
2023-02-09T00:13:43.753Z,0.36
2023-02-09T00:16:10.887Z,0.37
2023-02-09T00:18:38.095Z,0.38
2023-02-09T00:21:09.085Z,0.46
2023-02-09T00:23:37.938Z,0.50
2023-02-09T00:26:06.953Z,0.46
2023-02-09T00:28:34.160Z,0.41
2023-02-09T00:31:05.920Z,0.36
2023-02-09T00:33:33.213Z,0.33
2023-02-09T00:36:00.326Z,0.31
2023-02-09T00:38:27.124Z,0.34
2023-02-09T00:40:54.749Z,0.32
2023-02-09T00:43:21.500Z,0.34
2023-02-09T00:45:48.301Z,0.35
2023-02-09T00:48:15.169Z,0.32
2023-02-09T00:50:42.112Z,0.31
2023-02-09T00:53:08.749Z,0.28
2023-02-09T00:55:35.850Z,0.27
2023-02-09T00:58:02.719Z,0.26
2023-02-09T01:00:30.077Z,0.27
2023-02-09T01:02:57.515Z,0.30
2023-02-09T01:05:24.473Z,0.31
2023-02-09T01:07:51.257Z,0.31
2023-02-09T01:10:18.410Z,0.34
2023-02-09T01:12:45.422Z,0.29
2023-02-09T01:15:12.849Z,0.25
2023-02-09T01:17:40.063Z,0.27
2023-02-09T01:20:10.169Z,0.30
2023-02-09T01:22:37.515Z,0.31
2023-02-09T01:25:05.187Z,0.32
2023-02-09T01:27:32.253Z,0.40
2023-02-09T01:29:58.991Z,0.43
2023-02-09T01:32:26.091Z,0.42
2023-02-09T01:34:53.452Z,0.39
2023-02-09T01:37:20.496Z,0.35
2023-02-09T01:39:47.990Z,0.34
2023-02-09T01:42:15.871Z,0.27
2023-02-09T01:44:42.604Z,0.29
2023-02-09T01:47:27.348Z,0.27
2023-02-09T01:49:54.190Z,0.32
2023-02-09T01:52:23.414Z,0.30
2023-02-09T01:54:53.241Z,0.28
2023-02-09T01:57:25.437Z,0.22
2023-02-09T01:59:56.389Z,0.22
2023-02-09T02:02:23.591Z,0.24
2023-02-09T02:04:51.525Z,0.30
2023-02-09T02:07:24.864Z,0.29
2023-02-09T02:09:52.305Z,0.22
2023-02-09T02:12:19.763Z,0.28
2023-02-09T02:14:47.336Z,0.22
2023-02-09T02:17:16.041Z,0.20
2023-02-09T02:20:06.483Z,0.18
2023-02-09T02:22:43.297Z,0.18
2023-02-09T02:25:13.746Z,0.14
2023-02-09T02:27:44.087Z,0.16
2023-02-09T02:30:17.251Z,0.17
2023-02-09T02:33:07.014Z,0.16
2023-02-09T02:35:40.282Z,0.17
2023-02-09T02:38:34.600Z,0.17
2023-02-09T02:41:02.682Z,0.12
2023-02-09T02:43:30.398Z,0.08
2023-02-09T02:46:00.650Z,0.07
2023-02-09T02:48:33.351Z,0.09
2023-02-09T02:51:08.307Z,0.03
2023-02-09T02:53:36.699Z,0.00
2023-02-09T02:56:07.694Z,-0.01
2023-02-09T02:58:36.833Z,-0.01
2023-02-09T03:01:04.645Z,0.05
2023-02-09T03:03:33.913Z,0.02
2023-02-09T03:06:02.982Z,-0.04
2023-02-09T03:08:30.283Z,-0.04
2023-02-09T03:10:58.381Z,0.02
2023-02-09T03:13:28.038Z,-0.06
2023-02-09T03:22:32.820Z,-0.12
2023-02-09T03:25:05.798Z,-0.18
2023-02-09T03:27:59.142Z,-0.19
2023-02-09T03:30:26.435Z,-0.15
2023-02-09T03:32:56.285Z,-0.18
2023-02-09T03:35:31.371Z,-0.19
2023-02-09T03:37:58.248Z,-0.16
2023-02-09T03:40:25.640Z,-0.18
2023-02-09T03:42:53.025Z,-0.15
2023-02-09T03:45:20.441Z,-0.19
2023-02-09T03:47:47.119Z,-0.16
2023-02-09T03:50:14.264Z,-0.20
2023-02-09T03:52:41.073Z,-0.22
2023-02-09T03:55:08.340Z,-0.26
2023-02-09T03:57:36.295Z,-0.26
2023-02-09T04:00:03.654Z,-0.26
2023-02-09T04:02:30.503Z,-0.24
2023-02-09T04:04:57.692Z,-0.29
2023-02-09T04:07:24.585Z,-0.34
2023-02-09T04:09:51.373Z,-0.35
2023-02-09T04:12:19.308Z,-0.33
2023-02-09T04:14:46.385Z,-0.36
2023-02-09T04:17:12.979Z,-0.34
2023-02-09T04:19:39.466Z,-0.34
2023-02-09T04:22:08.217Z,-0.35
2023-02-09T04:24:35.264Z,-0.34
2023-02-09T04:27:02.482Z,-0.33
2023-02-09T04:29:29.118Z,-0.36
2023-02-09T04:31:56.709Z,-0.40
2023-02-09T04:34:24.559Z,-0.48
2023-02-09T04:36:51.597Z,-0.43
2023-02-09T04:39:19.127Z,-0.42
2023-02-09T04:41:45.752Z,-0.45
2023-02-09T04:44:12.878Z,-0.44
2023-02-09T04:46:39.503Z,-0.42
2023-02-09T04:49:06.368Z,-0.40
2023-02-09T04:51:33.457Z,-0.43
2023-02-09T04:54:00.048Z,-0.43
2023-02-09T04:56:27.038Z,-0.42
2023-02-09T04:59:12.318Z,-0.43
2023-02-09T05:01:39.551Z,-0.44
2023-02-09T05:04:06.619Z,-0.45
2023-02-09T05:06:33.221Z,-0.48
2023-02-09T05:09:00.111Z,-0.48
2023-02-09T05:11:27.085Z,-0.49
2023-02-09T05:13:53.940Z,-0.51
2023-02-09T05:16:21.392Z,-0.52
2023-02-09T05:18:50.515Z,-0.48
2023-02-09T05:21:17.647Z,-0.50
2023-02-09T05:23:44.478Z,-0.50
2023-02-09T05:26:11.385Z,-0.54
2023-02-09T05:28:38.757Z,-0.51
2023-02-09T05:31:05.932Z,-0.52
2023-02-09T05:33:32.425Z,-0.52
2023-02-09T05:36:00.460Z,-0.57
2023-02-09T05:38:27.557Z,-0.56
2023-02-09T05:40:54.494Z,-0.58
2023-02-09T05:43:21.442Z,-0.55
2023-02-09T05:45:48.594Z,-0.59
2023-02-09T05:48:15.788Z,-0.55
2023-02-09T05:50:42.694Z,-0.60
2023-02-09T05:53:09.489Z,-0.55
2023-02-09T05:55:36.325Z,-0.57
2023-02-09T05:58:03.509Z,-0.58
2023-02-09T06:00:30.754Z,-0.63
2023-02-09T06:02:58.688Z,-0.59
2023-02-09T06:05:26.201Z,-0.64
2023-02-09T06:07:53.662Z,-0.62
2023-02-09T06:10:20.956Z,-0.67
2023-02-09T06:12:48.172Z,-0.66
2023-02-09T06:15:16.334Z,-0.68
2023-02-09T06:17:43.358Z,-0.66
2023-02-09T06:20:10.284Z,-0.58
2023-02-09T06:22:37.196Z,-0.62
2023-02-09T06:25:04.159Z,-0.63
2023-02-09T06:27:30.767Z,-0.66
2023-02-09T06:29:57.875Z,-0.66
2023-02-09T06:32:24.802Z,-0.69
2023-02-09T06:34:52.265Z,-0.68
2023-02-09T06:37:19.629Z,-0.66
2023-02-09T06:39:46.605Z,-0.67
2023-02-09T06:42:13.342Z,-0.64
2023-02-09T06:44:40.335Z,-0.64
2023-02-09T06:47:07.706Z,-0.64
2023-02-09T06:49:34.461Z,-0.65
2023-02-09T06:52:02.095Z,-0.69
2023-02-09T06:54:29.282Z,-0.70
2023-02-09T06:56:55.922Z,-0.68
2023-02-09T06:59:22.863Z,-0.69
2023-02-09T07:01:52.789Z,-0.64
2023-02-09T07:04:21.157Z,-0.65
2023-02-09T07:06:48.751Z,-0.66
2023-02-09T07:09:15.318Z,-0.70
2023-02-09T07:11:41.999Z,-0.65
2023-02-09T07:14:08.999Z,-0.65
2023-02-09T07:16:35.987Z,-0.60
2023-02-09T07:19:03.258Z,-0.63
2023-02-09T07:21:30.137Z,-0.66
2023-02-09T07:23:57.479Z,-0.57
2023-02-09T07:26:24.460Z,-0.58
2023-02-09T07:28:52.017Z,-0.59
2023-02-09T07:31:18.839Z,-0.52
2023-02-09T07:33:46.194Z,-0.50
2023-02-09T07:36:14.187Z,-0.47
2023-02-09T07:38:41.819Z,-0.44
2023-02-09T07:41:13.553Z,-0.45
2023-02-09T07:43:40.207Z,-0.20
2023-02-09T07:46:07.824Z,-0.27
2023-02-09T07:48:36.500Z,-0.29
2023-02-09T07:51:03.827Z,-0.26
2023-02-09T07:53:31.135Z,-0.17
2023-02-09T07:55:58.016Z,-0.14
2023-02-09T07:58:24.769Z,-0.09
2023-02-09T08:00:52.316Z,-0.05
2023-02-09T08:03:21.037Z,-0.03
2023-02-09T08:06:06.765Z,0.00
2023-02-09T08:08:33.699Z,0.05
2023-02-09T08:11:01.403Z,0.10
2023-02-09T08:13:31.235Z,0.06
2023-02-09T08:16:01.815Z,0.08
2023-02-09T08:18:31.872Z,0.14
2023-02-09T08:20:58.891Z,0.16
2023-02-09T08:23:28.023Z,0.19
2023-02-09T08:25:55.249Z,0.24
2023-02-09T08:28:31.885Z,0.29
2023-02-09T08:31:05.282Z,0.31
2023-02-09T08:33:31.970Z,0.36
2023-02-09T08:35:59.769Z,0.35
2023-02-09T08:38:26.536Z,0.53
2023-02-09T08:40:53.537Z,0.52
2023-02-09T08:43:20.296Z,0.54
2023-02-09T08:45:47.677Z,0.59
2023-02-09T08:48:15.084Z,0.71
2023-02-09T08:50:42.167Z,0.71
2023-02-09T08:53:10.215Z,0.77
2023-02-09T08:55:38.056Z,0.89
2023-02-09T08:58:05.819Z,0.87
2023-02-09T09:00:32.438Z,0.93
2023-02-09T09:02:59.175Z,0.93
2023-02-09T09:05:26.121Z,0.98
2023-02-09T09:07:53.213Z,1.03
2023-02-09T09:10:19.719Z,1.01
2023-02-09T09:12:46.787Z,1.17
2023-02-09T09:15:13.305Z,1.15
2023-02-09T09:17:40.258Z,1.19
2023-02-09T09:20:07.639Z,1.22
2023-02-09T09:22:34.432Z,1.30
2023-02-09T09:25:01.775Z,1.30
2023-02-09T09:27:32.586Z,1.34
2023-02-09T09:29:59.842Z,1.39
2023-02-09T09:32:26.898Z,1.48
2023-02-09T09:34:54.786Z,1.46
2023-02-09T09:37:22.438Z,1.55
2023-02-09T09:39:49.363Z,1.58
2023-02-09T09:42:36.731Z,1.62
2023-02-09T09:45:04.984Z,1.65
2023-02-09T09:47:37.363Z,1.69
2023-02-09T09:50:05.381Z,1.76
2023-02-09T09:52:33.399Z,1.87
2023-02-09T09:55:01.354Z,1.92
2023-02-09T09:57:30.092Z,2.00
2023-02-09T09:59:56.978Z,2.13
2023-02-09T10:02:31.470Z,2.18
2023-02-09T10:05:10.196Z,2.22
2023-02-09T10:07:38.083Z,2.36
2023-02-09T10:10:14.665Z,2.37
2023-02-09T10:12:48.528Z,2.51
2023-02-09T10:15:23.757Z,2.53
2023-02-09T10:17:50.541Z,2.49
2023-02-09T10:20:17.401Z,2.49
2023-02-09T10:22:45.672Z,2.56
2023-02-09T10:25:48.073Z,2.68
2023-02-09T10:28:18.931Z,2.75
2023-02-09T10:30:46.964Z,2.72
2023-02-09T10:33:15.718Z,2.82
2023-02-09T10:36:06.710Z,2.84
2023-02-09T10:38:33.739Z,2.87
2023-02-09T10:41:01.012Z,2.95
2023-02-09T10:43:34.076Z,3.01
2023-02-09T10:46:03.582Z,2.96
2023-02-09T10:48:39.644Z,2.99
2023-02-09T10:51:08.063Z,3.13
2023-02-09T10:53:39.597Z,3.12
2023-02-09T10:56:19.916Z,3.16
2023-02-09T10:58:51.162Z,3.25
2023-02-09T11:01:21.579Z,3.25
2023-02-09T11:04:00.468Z,3.33
2023-02-09T11:06:27.990Z,3.36
2023-02-09T11:09:11.886Z,3.35
2023-02-09T11:11:40.350Z,3.40
2023-02-09T11:14:12.766Z,3.41
2023-02-09T11:16:44.431Z,3.46
2023-02-09T11:19:22.356Z,3.54
2023-02-09T11:22:08.231Z,3.55
2023-02-09T11:24:50.346Z,3.59
2023-02-09T11:27:19.949Z,3.65
2023-02-09T11:29:52.891Z,3.69
2023-02-09T11:32:24.671Z,3.76
2023-02-09T11:35:11.635Z,3.82
2023-02-09T11:37:47.575Z,3.92
2023-02-09T11:40:33.001Z,3.97
2023-02-09T11:43:15.030Z,4.01
2023-02-09T11:45:52.174Z,4.13
2023-02-09T11:48:19.300Z,4.12
2023-02-09T11:50:48.930Z,4.11
2023-02-09T11:53:21.706Z,4.19
2023-02-09T11:55:52.171Z,4.19
2023-02-09T11:58:38.138Z,4.11
2023-02-09T12:01:16.665Z,4.20
2023-02-09T12:03:52.100Z,4.24
2023-02-09T12:06:22.921Z,4.28
2023-02-09T12:08:55.836Z,4.34
2023-02-09T12:11:25.622Z,4.29
2023-02-09T12:14:11.329Z,4.37
2023-02-09T12:16:40.851Z,4.34
2023-02-09T12:19:24.345Z,4.33
2023-02-09T12:21:51.072Z,4.45
2023-02-09T12:24:53.130Z,4.38
2023-02-09T12:27:24.817Z,4.45
2023-02-09T12:29:51.634Z,4.47
2023-02-09T12:32:41.414Z,4.61
2023-02-09T12:35:37.217Z,4.62
2023-02-09T12:38:08.792Z,4.69
2023-02-09T12:40:36.843Z,4.74
2023-02-09T12:43:29.968Z,4.87
2023-02-09T12:46:15.769Z,4.98
2023-02-09T12:48:51.746Z,5.05
2023-02-09T12:51:37.152Z,5.07
2023-02-09T12:54:22.682Z,5.08
2023-02-09T12:56:49.649Z,5.16
2023-02-09T12:59:18.517Z,5.19
2023-02-09T13:02:09.385Z,5.32
2023-02-09T13:04:39.022Z,5.29
2023-02-09T13:07:11.011Z,5.33
2023-02-09T13:09:40.453Z,5.34
2023-02-09T13:12:19.485Z,5.40
2023-02-09T13:14:48.933Z,5.50
2023-02-09T13:17:42.105Z,5.58
2023-02-09T13:20:14.896Z,5.54
2023-02-09T13:22:41.885Z,5.41
2023-02-09T13:25:32.362Z,5.50
2023-02-09T13:28:10.171Z,5.51
2023-02-09T13:30:37.807Z,5.51
2023-02-09T13:33:07.743Z,5.47
2023-02-09T13:35:38.848Z,5.49
2023-02-09T13:38:25.301Z,5.57
2023-02-09T13:40:52.365Z,5.69
2023-02-09T13:43:30.989Z,5.70
2023-02-09T13:45:58.908Z,5.75
2023-02-09T13:48:33.593Z,5.88
2023-02-09T13:51:01.463Z,5.90
2023-02-09T13:53:29.600Z,6.06
2023-02-09T13:55:58.154Z,6.22
2023-02-09T13:58:30.417Z,6.29
2023-02-09T14:00:59.095Z,6.28
2023-02-09T14:03:27.123Z,6.44
2023-02-09T14:05:54.128Z,6.39
2023-02-09T14:08:22.356Z,6.42
2023-02-09T14:10:55.336Z,6.45
2023-02-09T14:13:29.548Z,6.40
2023-02-09T14:16:07.362Z,6.32
2023-02-09T14:18:44.861Z,6.19
2023-02-09T14:21:11.851Z,6.23
2023-02-09T14:23:40.031Z,6.24
2023-02-09T14:26:15.996Z,6.20
2023-02-09T14:28:47.821Z,6.14
2023-02-09T14:31:24.874Z,6.10
2023-02-09T14:33:53.445Z,6.17
2023-02-09T14:36:30.904Z,6.17
2023-02-09T14:39:16.331Z,6.16
2023-02-09T14:41:59.808Z,6.13
2023-02-09T14:44:27.225Z,6.19
2023-02-09T14:46:58.703Z,6.16
2023-02-09T14:49:26.217Z,6.12
2023-02-09T14:52:01.367Z,6.13
2023-02-09T14:54:30.705Z,6.17
2023-02-09T14:56:58.852Z,6.09
2023-02-09T14:59:25.493Z,6.11
2023-02-09T15:01:53.444Z,6.11
2023-02-09T15:04:20.881Z,6.11
2023-02-09T15:06:50.110Z,6.15
2023-02-09T15:09:22.424Z,6.13
2023-02-09T15:12:04.518Z,6.08
2023-02-09T15:14:45.068Z,6.01
2023-02-09T15:17:13.905Z,6.02
2023-02-09T15:19:41.199Z,5.97
2023-02-09T15:22:08.837Z,5.98
2023-02-09T15:24:36.181Z,5.94
2023-02-09T15:27:03.402Z,5.97
2023-02-09T15:29:31.048Z,6.00
2023-02-09T15:31:57.891Z,5.88
2023-02-09T15:34:24.461Z,5.90
2023-02-09T15:36:52.089Z,5.88
2023-02-09T15:39:21.113Z,5.82
2023-02-09T15:42:20.008Z,5.87
2023-02-09T15:45:06.962Z,5.77
2023-02-09T15:47:54.528Z,5.82
2023-02-09T15:50:21.123Z,5.68
2023-02-09T15:52:48.357Z,5.62
2023-02-09T15:55:20.013Z,5.58
2023-02-09T15:57:48.904Z,5.59
2023-02-09T16:00:20.129Z,5.54
2023-02-09T16:02:48.895Z,5.49
2023-02-09T16:05:16.089Z,5.40
2023-02-09T16:07:44.157Z,5.41
2023-02-09T16:10:31.762Z,5.39
2023-02-09T16:12:58.840Z,5.34
2023-02-09T16:15:26.430Z,5.34
2023-02-09T16:17:53.205Z,5.27
2023-02-09T16:20:20.702Z,5.19
2023-02-09T16:22:48.784Z,5.17
2023-02-09T16:25:20.399Z,5.15
2023-02-09T16:27:47.520Z,5.09
2023-02-09T16:30:18.886Z,5.06
2023-02-09T16:32:46.002Z,5.03
2023-02-09T16:35:17.024Z,5.06
2023-02-09T16:37:45.435Z,5.07
2023-02-09T16:40:15.084Z,5.05
2023-02-09T16:42:43.105Z,5.08
2023-02-09T16:45:13.937Z,5.05
2023-02-09T16:47:45.675Z,5.05
2023-02-09T16:50:23.524Z,5.04
2023-02-09T16:52:52.893Z,5.07
2023-02-09T16:55:22.363Z,5.06
2023-02-09T16:57:54.640Z,5.05
2023-02-09T17:00:22.803Z,5.06
2023-02-09T17:02:55.359Z,5.05
2023-02-09T17:05:22.444Z,5.05
2023-02-09T17:07:55.040Z,5.04
2023-02-09T17:10:24.694Z,5.04
2023-02-09T17:12:53.474Z,5.00
2023-02-09T17:15:30.218Z,4.96
2023-02-09T17:18:02.570Z,4.94
2023-02-09T17:20:34.427Z,4.92
2023-02-09T17:23:01.222Z,4.95
2023-02-09T17:25:28.234Z,4.92
2023-02-09T17:27:55.556Z,4.91
2023-02-09T17:30:22.656Z,4.88
2023-02-09T17:32:54.915Z,4.94
2023-02-09T17:35:44.601Z,5.01
2023-02-09T17:38:20.051Z,4.99
2023-02-09T17:40:46.816Z,4.95
2023-02-09T17:43:13.772Z,4.94
2023-02-09T17:45:41.829Z,4.93
2023-02-09T17:48:08.945Z,4.91
2023-02-09T17:50:35.613Z,4.91
2023-02-09T17:53:02.448Z,4.90
2023-02-09T17:55:31.482Z,4.89
2023-02-09T17:57:59.784Z,4.91
2023-02-09T18:00:27.033Z,4.89
2023-02-09T18:02:53.827Z,4.93
2023-02-09T18:05:23.242Z,4.93
2023-02-09T18:07:50.361Z,4.92
2023-02-09T18:10:18.200Z,4.93
2023-02-09T18:12:44.851Z,4.87
2023-02-09T18:15:20.924Z,4.89
2023-02-09T18:17:48.150Z,4.88
2023-02-09T18:20:16.979Z,4.88
2023-02-09T18:22:45.074Z,4.88
2023-02-09T18:25:34.541Z,4.88
2023-02-09T18:28:01.413Z,4.93
2023-02-09T18:30:31.238Z,4.97
2023-02-09T18:32:58.393Z,4.94
2023-02-09T18:35:33.928Z,4.94
2023-02-09T18:38:02.112Z,4.94
2023-02-09T18:40:29.768Z,4.96
2023-02-09T18:42:56.815Z,4.93
2023-02-09T18:45:23.691Z,4.95
2023-02-09T18:47:50.655Z,4.94
2023-02-09T18:50:21.396Z,4.96
2023-02-09T18:52:49.656Z,4.97
2023-02-09T18:55:16.538Z,4.93
2023-02-09T18:57:43.365Z,4.97
2023-02-09T19:00:12.323Z,4.94
2023-02-09T19:02:39.319Z,4.95
2023-02-09T19:05:06.601Z,4.96
2023-02-09T19:07:35.774Z,4.95
2023-02-09T19:10:04.949Z,4.96
2023-02-09T19:12:32.122Z,4.94
2023-02-09T19:14:58.726Z,4.92
2023-02-09T19:17:25.742Z,4.91
2023-02-09T19:19:52.487Z,4.90
2023-02-09T19:22:20.468Z,4.91
2023-02-09T19:24:47.823Z,4.90
2023-02-09T19:27:16.860Z,4.91
2023-02-09T19:29:44.039Z,4.93
2023-02-09T19:32:14.497Z,5.01
2023-02-09T19:34:43.099Z,4.91
2023-02-09T19:37:10.970Z,4.90
2023-02-09T19:39:39.893Z,4.93
2023-02-09T19:42:07.717Z,4.97
2023-02-09T19:44:34.931Z,4.93
2023-02-09T19:47:02.188Z,4.92
2023-02-09T19:49:29.287Z,4.94
2023-02-09T19:51:55.906Z,4.94
2023-02-09T19:54:23.023Z,4.94
2023-02-09T19:56:50.346Z,4.98
2023-02-09T19:59:17.533Z,4.99
2023-02-09T20:01:45.077Z,4.98
2023-02-09T20:04:12.132Z,4.96
2023-02-09T20:06:38.760Z,4.95
2023-02-09T20:09:05.651Z,4.96
2023-02-09T20:11:33.387Z,4.99
2023-02-09T20:16:33.110Z,4.93
2023-02-09T20:19:00.217Z,4.93
2023-02-09T20:21:27.043Z,4.94
2023-02-09T20:23:55.371Z,4.96
2023-02-09T20:26:25.945Z,4.92
2023-02-09T20:28:53.188Z,4.89
2023-02-09T20:31:21.406Z,4.90
2023-02-09T20:33:48.437Z,4.96
2023-02-09T20:36:16.378Z,4.91
2023-02-09T20:38:42.967Z,4.90
2023-02-09T20:41:11.164Z,4.98
2023-02-09T20:43:56.643Z,5.02
2023-02-09T20:46:43.394Z,4.93
2023-02-09T20:49:11.649Z,4.94
2023-02-09T20:51:38.362Z,4.94
2023-02-09T20:54:05.944Z,4.92
2023-02-09T20:56:32.733Z,4.92
2023-02-09T20:59:00.079Z,4.95
2023-02-09T21:01:26.874Z,4.95
2023-02-09T21:03:55.053Z,4.95
2023-02-09T21:06:22.312Z,4.99
2023-02-09T21:08:49.090Z,4.98
2023-02-09T21:11:17.228Z,4.93
2023-02-09T21:13:45.144Z,4.96
2023-02-09T21:16:13.292Z,4.97
2023-02-09T21:18:40.322Z,4.98
2023-02-09T21:21:08.260Z,5.05
2023-02-09T21:23:35.761Z,5.12
2023-02-09T21:26:06.042Z,5.08
2023-02-09T21:28:33.270Z,5.07
2023-02-09T21:31:00.249Z,5.06
2023-02-09T21:33:27.048Z,5.06
2023-02-09T21:35:54.447Z,5.06
2023-02-09T21:38:21.182Z,5.09
2023-02-09T21:40:48.207Z,5.13
2023-02-09T21:43:15.237Z,5.14
2023-02-09T21:45:41.913Z,5.11
2023-02-09T21:48:08.685Z,5.10
2023-02-09T21:50:35.405Z,5.10
2023-02-09T21:53:02.286Z,5.10
2023-02-09T21:55:31.975Z,5.11
2023-02-09T21:58:00.473Z,5.10
2023-02-09T22:00:27.280Z,5.07
2023-02-09T22:02:55.069Z,5.11
2023-02-09T22:05:22.686Z,5.09
2023-02-09T22:07:49.976Z,5.07
2023-02-09T22:10:20.319Z,5.04
2023-02-09T22:12:47.416Z,5.10
2023-02-09T22:15:15.164Z,5.07
2023-02-09T22:17:43.165Z,5.09
2023-02-09T22:20:10.326Z,5.03
2023-02-09T22:22:36.919Z,5.05
2023-02-09T22:25:03.511Z,4.94
2023-02-09T22:27:30.688Z,4.88
2023-02-09T22:29:57.499Z,4.86
2023-02-09T22:32:24.428Z,4.82
2023-02-09T22:34:51.682Z,4.84
2023-02-09T22:37:19.197Z,4.82
2023-02-09T22:39:47.048Z,4.74
2023-02-09T22:42:13.796Z,4.69
2023-02-09T22:44:41.007Z,4.73
2023-02-09T22:47:07.772Z,4.70
2023-02-09T22:49:35.063Z,4.72
2023-02-09T22:52:02.413Z,4.75
2023-02-09T22:54:29.381Z,4.75
2023-02-09T22:56:56.121Z,4.71
2023-02-09T22:59:46.215Z,4.65
2023-02-09T23:02:13.014Z,4.69
2023-02-09T23:04:40.216Z,4.67
2023-02-09T23:07:06.755Z,4.69
2023-02-09T23:09:33.917Z,4.67
2023-02-09T23:12:01.301Z,4.65
2023-02-09T23:14:28.130Z,4.64
2023-02-09T23:16:54.918Z,4.63
2023-02-09T23:19:22.284Z,4.65
2023-02-09T23:21:50.210Z,4.68
2023-02-09T23:24:18.340Z,4.64
2023-02-09T23:26:45.327Z,4.64
2023-02-09T23:29:13.241Z,4.61
2023-02-09T23:31:40.470Z,4.62
2023-02-09T23:34:07.366Z,4.60
2023-02-09T23:36:34.803Z,4.61
2023-02-09T23:39:04.284Z,4.58
2023-02-09T23:41:31.000Z,4.56
2023-02-09T23:43:57.798Z,4.61
2023-02-09T23:46:28.427Z,4.59
2023-02-09T23:48:56.320Z,4.60
2023-02-09T23:51:33.235Z,4.63
2023-02-09T23:54:01.110Z,4.63
2023-02-09T23:56:29.916Z,4.63
2023-02-09T23:58:57.034Z,4.63
